Flight Track Log - Related Links

Times and Time Zones

All times are in EDT time to prevent confusion due to time zone crossing. See the LBQ652 flight status page for this flight to view local times or setup timezone preferences in your user account.

Time Position Orientation Groundspeed Altitude Reporting Facility
EDT Latitude Longitude Course Direction KTS MPH feet Rate Location/Type
Thu 03:45:19 AM 41.8558 -88.4008 263° West 221 254 4,200  Level Chicago Center
Thu 03:46:20 AM 41.8458 -88.4989 262° West 256 295 5,600 1,388 Climbing Chicago Center
Thu 03:47:20 AM 41.8361 -88.6014 263° West 276 318 7,000 1,450 Climbing Chicago Center
Thu 03:48:20 AM 41.8267 -88.7042 263° West 280 322 8,500 1,500 Climbing Chicago Center
Thu 03:49:00 AM 41.9550 -88.8783 217° Southwest  Level FlightAware Approximate
Thu 03:49:20 AM 41.8158 -88.8067 262° West 281 323 10,000  Level Chicago Center
Thu 03:50:21 AM 41.8025 -88.9103 260° West 284 327 11,300 1,140 Climbing Chicago Center
Thu 03:51:21 AM 41.7742 -89.0092 249° West 288 331 12,300 950 Climbing Chicago Center
Thu 03:52:21 AM 41.7472 -89.1106 250° West 293 337 13,200 893 Climbing Chicago Center
Thu 03:53:22 AM 41.7197 -89.2169 251° West 304 350 14,100 843 Climbing Chicago Center
Thu 03:54:22 AM 41.6892 -89.3189 248° West 300 345 14,900 1,000 Climbing Chicago Center
Thu 03:55:22 AM 41.6350 -89.4347 238° Southwest 308 354 16,100 800 Climbing Chicago Center
Thu 03:56:22 AM 41.5944 -89.5289 240° Southwest 301 346 16,500 496 Climbing Chicago Center
Thu 03:57:23 AM 41.5483 -89.6322 239° Southwest 317 365 17,100 1,041 Climbing Chicago Center
Thu 03:58:23 AM 41.5053 -89.7272 239° Southwest 309 356 18,600 1,150 Climbing Chicago Center
Thu 03:59:23 AM 41.4625 -89.8203 238° Southwest 300 345 19,400 843 Climbing Chicago Center
Thu 04:00:24 AM 41.4194 -89.9158 239° Southwest 300 345 20,300 893 Climbing Chicago Center
Thu 04:01:24 AM 41.3758 -90.0114 239° Southwest 302 348 21,200 850 Climbing Chicago Center
Thu 04:02:24 AM 41.3322 -90.1075 239° Southwest 305 351 22,000 744 Climbing Chicago Center
Thu 04:03:25 AM 41.2861 -90.2056 238° Southwest 313 360 22,700 694 Climbing Chicago Center
Thu 04:04:25 AM 41.2403 -90.3075 239° Southwest 323 372 23,400 600 Climbing Chicago Center
Thu 04:05:25 AM 41.1944 -90.4072 239° Southwest 319 367 23,900 500 Climbing Chicago Center
Thu 04:06:25 AM 41.1475 -90.5086 238° Southwest 323 372 24,400 645 Climbing Chicago Center
Thu 04:07:26 AM 41.1000 -90.6108 238° Southwest 326 375 25,200 645 Climbing Chicago Center
Thu 04:08:26 AM 41.0522 -90.7119 238° Southwest 326 375 25,700 650 Climbing Chicago Center
Thu 04:09:26 AM 41.0056 -90.8128 239° Southwest 323 372 26,500 744 Climbing Chicago Center
Thu 04:10:27 AM 40.9572 -90.9142 238° Southwest 325 374 27,200 744 Climbing Chicago Center
Thu 04:11:27 AM 40.9108 -91.0150 239° Southwest 323 372 28,000 800 Climbing Chicago Center
Thu 04:12:27 AM 40.8647 -91.1136 238° Southwest 319 367 28,800 793 Climbing Chicago Center
Thu 04:13:28 AM 40.8169 -91.2128 238° Southwest 319 367 29,600 595 Climbing Chicago Center
Thu 04:14:28 AM 40.7622 -91.3272 238° Southwest 326 375 30,000 200 Climbing Chicago Center
Thu 04:15:28 AM 40.7125 -91.4339 238° Southwest 344 396 30,000  Level Chicago Center
Thu 04:16:28 AM 40.6589 -91.5442 237° Southwest 359 413 30,000  Level Chicago Center
Thu 04:17:29 AM 40.6056 -91.6561 238° Southwest 363 418 30,000  Level Chicago Center
Thu 04:18:14 AM 40.5722 -91.7231 237° Southwest 364 419 30,000  Level Kansas City Center
Thu 04:19:15 AM 40.5064 -91.8597 238° Southwest 370 426 30,000  Level Kansas City Center
Thu 04:20:15 AM 40.4508 -91.9728 237° Southwest 371 427 30,000  Level Kansas City Center
Thu 04:21:16 AM 40.3956 -92.0864 237° Southwest 371 427 30,000  Level Kansas City Center
Thu 04:22:16 AM 40.3408 -92.1994 238° Southwest 370 426 30,000  Level Kansas City Center
Thu 04:23:17 AM 40.2850 -92.3133 237° Southwest 372 428 30,000  Level Kansas City Center
Thu 04:24:17 AM 40.2239 -92.4347 237° Southwest 371 427 30,000  Level Kansas City Center
Thu 04:25:18 AM 40.1681 -92.5436 236° Southwest 375 432 30,000  Level Kansas City Center
Thu 04:26:18 AM 40.1161 -92.6528 238° Southwest 372 428 30,000  Level Kansas City Center
Thu 04:27:19 AM 40.0592 -92.7700 238° Southwest 368 423 30,000 -49 Level Kansas City Center
Thu 04:28:20 AM 40.0033 -92.8794 236° Southwest 366 421 29,900 -397 Descending Kansas City Center
Thu 04:29:20 AM 39.9467 -92.9931 237° Southwest 372 428 29,200 -694 Descending Kansas City Center
Thu 04:30:21 AM 39.8889 -93.1089 237° Southwest 380 437 28,500 -793 Descending Kansas City Center
Thu 04:31:21 AM 39.8308 -93.2239 237° Southwest 382 440 27,600 -942 Descending Kansas City Center
Thu 04:32:22 AM 39.7725 -93.3397 237° Southwest 384 442 26,600 -1,180 Descending Kansas City Center
Thu 04:33:23 AM 39.7117 -93.4556 236° Southwest 388 447 25,200 -1,339 Descending Kansas City Center
Thu 04:34:23 AM 39.6525 -93.5736 237° Southwest 392 451 23,900 -1,438 Descending Kansas City Center
Thu 04:35:24 AM 39.5931 -93.6900 236° Southwest 388 447 22,300 -1,918 Descending Kansas City Center
Thu 04:36:25 AM 39.5342 -93.8056 237° Southwest 358 412 20,000 -2,479 Descending Kansas City Center
Thu 04:37:25 AM 39.4733 -93.9217 236° Southwest 350 403 17,300 -2,479 Descending Kansas City Center
Thu 04:38:26 AM 39.4217 -94.0225 236° Southwest 344 396 15,000 -2,281 Descending Kansas City Center
Thu 04:39:26 AM 39.3744 -94.1136 236° Southwest 327 376 12,700 -2,479 Descending Kansas City Center
Thu 04:40:27 AM 39.3197 -94.2183 236° Southwest 313 360 10,000 -2,459 Descending Kansas City Center
Thu 04:41:28 AM 39.2744 -94.3047 236° Southwest 305 351 7,700 -2,281 Descending Kansas City Center
Thu 04:42:28 AM 39.2272 -94.3839 232° Southwest 291 335 5,400 -2,231 Descending Kansas City Center
Thu 04:43:29 AM 39.1958 -94.4681 244° Southwest 273 314 3,200 -1,339 Descending Kansas City Center
Thu 04:44:29 AM 39.1808 -94.5458 256° West 184 212 2,700 -793 Descending Kansas City Center
Thu 04:45:30 AM 39.1628 -94.5811 237° Southwest 126 145 1,600 -885 Descending Kansas City Center
Thu 04:46:31 AM 39.1292 -94.5919 194° South 116 133 900 -689 Descending Kansas City Center
Thu 04:48:00 AM 39.1229 -94.5928 237° Southwest  Level Estimated

Login

Don't have an account? Register now (free) for customized features, flight alerts, and more!